Dark Star — 2FDT3 — position and weather

sailwx.info

Track history (hours):
 
Tides and Currents Weather Stations Pressure Air Temp Water Temp Dewpoint Dewpoint Depression Visibility Wind Speed Wind Dir Waves Ship Positions

Dark Star

Last reported at 2017-Aug-22 07:00 UTC. Time now 2017-Sep-25 01:05 UTC.
Position N 48°23' W 004°29'.
Warning: this ship's position is 33 days out of date.

Length 14 m.

Type: Sailing vessel. MMSI: 235090381.

Date/timePositionNaut miles runAvg speedWind from/ knotsBaromVisibWave heightAir tempDewpointWater temp
2017-Aug-22 07:00N 48°23' W 004°29'0 0.0
2017-Aug-22 06:30N 48°23' W 004°29'0 0.0
2017-Aug-22 06:00N 48°23' W 004°29'2 0.1
2017-Aug-20 20:21N 48°24' W 004°26'0 0.0
2017-Aug-20 12:33N 48°24' W 004°26'0 0.0
2017-Aug-20 12:30N 48°24' W 004°26'9 3.4
2017-Aug-20 09:57N 48°17' W 004°35'1 1.7
2017-Aug-20 09:30N 48°17' W 004°35'0 0.0
2017-Aug-19 17:12N 48°17' W 004°35'0 0.0
2017-Aug-19 15:13N 48°17' W 004°35'0 0.0
2017-Aug-19 14:58N 48°17' W 004°35'13 3.9
2017-Aug-19 11:33N 48°07' W 004°22'0 6.9
2017-Aug-19 11:31N 48°07' W 004°21'1 1.8
2017-Aug-19 11:00N 48°06' W 004°20'0 0.0
2017-Aug-19 10:30N 48°06' W 004°20'0 0.0
2017-Aug-19 08:22N 48°06' W 004°20'0 0.0
2017-Aug-19 07:57N 48°06' W 004°20'0 0.0
2017-Aug-19 07:30N 48°06' W 004°20'0 0.0
2017-Aug-19 07:00N 48°06' W 004°20'7 0.3
2017-Aug-18 09:40N 48°11' W 004°27'1 4.6
2017-Aug-18 09:30N 48°12' W 004°27'2 4.1
2017-Aug-18 09:00N 48°14' W 004°29'0 0.4
2017-Aug-18 08:29N 48°14' W 004°30'0 0.0
2017-Aug-17 17:19N 48°14' W 004°30'0 0.0
2017-Aug-17 16:58N 48°14' W 004°30'0 0.0
2017-Aug-17 16:28N 48°14' W 004°30'0 0.0
2017-Aug-17 11:55N 48°14' W 004°30'0 0.0
2017-Aug-17 11:25N 48°14' W 004°30'0 0.0
2017-Aug-16 18:16N 48°14' W 004°30'0 0.0
2017-Aug-15 07:37N 48°14' W 004°30'0 0.0
2017-Aug-15 07:30N 48°14' W 004°30'0 0.0
2017-Aug-14 10:53N 48°14' W 004°30'0 0.0
2017-Aug-14 10:29N 48°14' W 004°30'0 0.0
2017-Aug-13 13:42N 48°14' W 004°30'0 0.0
2017-Aug-13 12:53N 48°14' W 004°30'0 0.0
2017-Aug-13 12:29N 48°14' W 004°30'0 0.0
2017-Aug-13 11:59N 48°14' W 004°30'  
Track history (hours):
 
Tides and Currents Weather Stations Pressure Air Temp Water Temp Dewpoint Dewpoint Depression Visibility Wind Speed Wind Dir Waves Ship Positions

Dark Star

Last reported at 2017-Aug-22 07:00 UTC. Time now 2017-Sep-25 01:05 UTC.
Position N 48°23' W 004°29'.
Warning: this ship's position is 33 days out of date.

Length 14 m.

Type: Sailing vessel. MMSI: 235090381.

Date/timePositionNaut miles runAvg speedWind from/ knotsBaromVisibWave heightAir tempDewpointWater temp
2017-Aug-22 07:00N 48°23' W 004°29'0 0.0
2017-Aug-22 06:30N 48°23' W 004°29'0 0.0
2017-Aug-22 06:00N 48°23' W 004°29'2 0.1
2017-Aug-20 20:21N 48°24' W 004°26'0 0.0
2017-Aug-20 12:33N 48°24' W 004°26'0 0.0
2017-Aug-20 12:30N 48°24' W 004°26'9 3.4
2017-Aug-20 09:57N 48°17' W 004°35'1 1.7
2017-Aug-20 09:30N 48°17' W 004°35'0 0.0
2017-Aug-19 17:12N 48°17' W 004°35'0 0.0
2017-Aug-19 15:13N 48°17' W 004°35'0 0.0
2017-Aug-19 14:58N 48°17' W 004°35'13 3.9
2017-Aug-19 11:33N 48°07' W 004°22'0 6.9
2017-Aug-19 11:31N 48°07' W 004°21'1 1.8
2017-Aug-19 11:00N 48°06' W 004°20'0 0.0
2017-Aug-19 10:30N 48°06' W 004°20'0 0.0
2017-Aug-19 08:22N 48°06' W 004°20'0 0.0
2017-Aug-19 07:57N 48°06' W 004°20'0 0.0
2017-Aug-19 07:30N 48°06' W 004°20'0 0.0
2017-Aug-19 07:00N 48°06' W 004°20'7 0.3
2017-Aug-18 09:40N 48°11' W 004°27'1 4.6
2017-Aug-18 09:30N 48°12' W 004°27'2 4.1
2017-Aug-18 09:00N 48°14' W 004°29'0 0.4
2017-Aug-18 08:29N 48°14' W 004°30'0 0.0
2017-Aug-17 17:19N 48°14' W 004°30'0 0.0
2017-Aug-17 16:58N 48°14' W 004°30'0 0.0
2017-Aug-17 16:28N 48°14' W 004°30'0 0.0
2017-Aug-17 11:55N 48°14' W 004°30'0 0.0
2017-Aug-17 11:25N 48°14' W 004°30'0 0.0
2017-Aug-16 18:16N 48°14' W 004°30'0 0.0
2017-Aug-15 07:37N 48°14' W 004°30'0 0.0
2017-Aug-15 07:30N 48°14' W 004°30'0 0.0
2017-Aug-14 10:53N 48°14' W 004°30'0 0.0
2017-Aug-14 10:29N 48°14' W 004°30'0 0.0
2017-Aug-13 13:42N 48°14' W 004°30'0 0.0
2017-Aug-13 12:53N 48°14' W 004°30'0 0.0
2017-Aug-13 12:29N 48°14' W 004°30'0 0.0
2017-Aug-13 11:59N 48°14' W 004°30'  

Dump ship's entire track history